Time;durP1;ratioP1;P1;durP2;ratioP2;P2;SDS_P1;SDS_P2;PMS_P1;PMS_P2;Temp;Humidity;BMP_temperature;BMP_pressure;BME280_temperature;BME280_humidity;BME280_pressure;Samples;Min_cycle;Max_cycle;Signal;HPM_P1;HPM_P2
2021/03/23 00:01:19;;;;;;;29.75;13.55;;;3.00;99.90;;;;;;4930723;29;20087;-85
2021/03/23 00:03:51;;;;;;;25.33;11.82;;;3.00;99.90;;;;;;4920408;29;20055;-84
2021/03/23 00:06:24;;;;;;;24.23;12.77;;;3.00;99.90;;;;;;4904068;29;20473;-85
2021/03/23 00:08:55;;;;;;;23.35;12.63;;;2.90;99.90;;;;;;4937396;29;20123;-84
2021/03/23 00:11:43;;;;;;;25.65;12.65;;;3.00;99.90;;;;;;4908047;29;20102;-83
2021/03/23 00:14:13;;;;;;;22.80;11.80;;;2.90;99.90;;;;;;4919802;29;20066;-83
2021/03/23 00:16:43;;;;;;;25.45;12.70;;;2.90;99.90;;;;;;4936326;29;20118;-83
2021/03/23 00:19:15;;;;;;;23.45;12.50;;;2.90;99.90;;;;;;4937188;29;20055;-84
2021/03/23 00:21:42;;;;;;;24.17;12.23;;;2.90;99.90;;;;;;4932426;29;20315;-84
2021/03/23 00:24:10;;;;;;;28.83;12.02;;;2.90;99.90;;;;;;4920028;29;20323;-85
2021/03/23 00:26:37;;;;;;;25.23;11.65;;;2.90;99.90;;;;;;4936028;29;20082;-85
2021/03/23 00:29:06;;;;;;;25.85;12.18;;;2.90;99.90;;;;;;4919481;29;20090;-85
2021/03/23 00:31:36;;;;;;;25.48;13.10;;;2.90;99.90;;;;;;4935105;29;20358;-84
2021/03/23 00:34:08;;;;;;;25.90;13.70;;;2.90;99.90;;;;;;4920295;29;20068;-86
2021/03/23 00:36:44;;;;;;;23.88;11.95;;;2.90;99.90;;;;;;4920161;29;20110;-84
2021/03/23 00:39:14;;;;;;;22.35;11.93;;;2.90;99.90;;;;;;4920329;29;20111;-83
2021/03/23 00:41:43;;;;;;;24.38;12.40;;;2.90;99.90;;;;;;4936399;29;20118;-84
2021/03/23 00:44:14;;;;;;;24.58;12.80;;;2.90;99.90;;;;;;4936675;29;20047;-83
2021/03/23 00:46:43;;;;;;;25.48;11.95;;;2.90;99.90;;;;;;4936377;29;20056;-84
2021/03/23 00:49:12;;;;;;;24.83;12.02;;;2.90;99.90;;;;;;4919666;29;20071;-85
2021/03/23 00:51:41;;;;;;;29.58;12.85;;;2.90;99.90;;;;;;4941632;29;20056;-84
2021/03/23 00:54:07;;;;;;;19.85;12.50;;;2.90;99.90;;;;;;4925335;29;20110;-84
2021/03/23 00:56:36;;;;;;;22.35;13.18;;;2.90;99.90;;;;;;4942430;29;20170;-84
2021/03/23 00:59:06;;;;;;;28.50;13.80;;;2.90;99.90;;;;;;4945991;29;20066;-86
2021/03/23 01:01:34;;;;;;;25.40;14.20;;;2.90;99.90;;;;;;4945307;29;20052;-84
2021/03/23 01:04:19;;;;;;;26.63;13.68;;;2.90;99.90;;;;;;4906944;29;20066;-84
2021/03/23 01:06:49;;;;;;;26.48;13.23;;;2.90;99.90;;;;;;4915447;29;20048;-84
2021/03/23 01:09:16;;;;;;;26.63;13.95;;;2.90;99.90;;;;;;4921209;29;20059;-84
2021/03/23 01:11:42;;;;;;;22.77;13.63;;;2.90;99.90;;;;;;4935056;29;20179;-84
2021/03/23 01:14:10;;;;;;;30.33;13.80;;;2.90;99.90;;;;;;4922941;29;20075;-84
2021/03/23 01:16:39;;;;;;;27.63;13.57;;;2.90;99.90;;;;;;4938774;29;20099;-84
2021/03/23 01:19:12;;;;;;;28.73;13.88;;;2.90;99.90;;;;;;4908038;29;20135;-85
2021/03/23 01:21:39;;;;;;;26.50;13.40;;;2.90;99.90;;;;;;4939022;29;20067;-84
2021/03/23 01:24:08;;;;;;;31.30;14.20;;;2.90;99.90;;;;;;4909022;29;20106;-83
2021/03/23 01:26:37;;;;;;;23.42;13.98;;;2.90;99.90;;;;;;4930697;29;20067;-84
2021/03/23 01:29:09;;;;;;;26.27;13.65;;;2.90;99.90;;;;;;4923684;29;20052;-85
2021/03/23 01:31:37;;;;;;;27.05;14.55;;;2.90;99.90;;;;;;4940218;29;20056;-85
2021/03/23 01:34:09;;;;;;;25.92;13.90;;;2.90;99.90;;;;;;4922795;29;20043;-85
2021/03/23 01:36:41;;;;;;;28.38;14.07;;;2.90;99.90;;;;;;4922285;29;20052;-83
2021/03/23 01:39:08;;;;;;;26.25;14.10;;;2.90;99.90;;;;;;4939703;29;20210;-84
2021/03/23 01:41:36;;;;;;;24.98;14.02;;;2.90;99.90;;;;;;4907731;29;20454;-84
2021/03/23 01:44:11;;;;;;;24.75;13.80;;;2.90;99.90;;;;;;4932008;29;20139;-85
2021/03/23 01:46:45;;;;;;;30.40;14.70;;;2.90;99.90;;;;;;4951506;29;20366;-85
2021/03/23 01:49:19;;;;;;;25.85;14.38;;;2.90;99.90;;;;;;4938053;28;20055;-85
2021/03/23 01:51:52;;;;;;;29.67;14.20;;;2.90;99.90;;;;;;4949405;29;20047;-84
2021/03/23 01:54:25;;;;;;;26.20;14.15;;;2.80;99.90;;;;;;4925217;29;20146;-85
2021/03/23 01:56:56;;;;;;;31.80;14.00;;;2.90;99.90;;;;;;4923173;29;20152;-85
2021/03/23 01:59:23;;;;;;;28.92;15.05;;;2.90;99.90;;;;;;4923441;29;20062;-84
2021/03/23 02:01:51;;;;;;;29.65;15.55;;;2.90;99.90;;;;;;4922991;29;20118;-84
2021/03/23 02:04:21;;;;;;;32.88;15.75;;;2.90;99.90;;;;;;4923547;29;20058;-83
2021/03/23 02:06:49;;;;;;;26.83;15.15;;;2.90;99.90;;;;;;4923608;29;20461;-84
2021/03/23 02:09:23;;;;;;;31.35;17.35;;;2.90;99.90;;;;;;4939942;29;20051;-84
2021/03/23 02:12:00;;;;;;;31.45;17.42;;;2.90;99.90;;;;;;4923798;29;20075;-85
2021/03/23 02:14:37;;;;;;;30.90;15.77;;;2.90;99.90;;;;;;4932410;29;20132;-82
2021/03/23 02:17:23;;;;;;;29.10;15.70;;;2.90;99.90;;;;;;4908939;29;20052;-85
2021/03/23 02:19:55;;;;;;;33.50;17.42;;;2.80;99.90;;;;;;4926793;29;20048;-85
2021/03/23 02:22:38;;;;;;;34.80;17.67;;;2.90;99.90;;;;;;4906110;29;20140;-84
2021/03/23 02:25:20;;;;;;;40.83;19.15;;;2.80;99.90;;;;;;4940434;29;20205;-85
2021/03/23 02:27:50;;;;;;;48.13;21.48;;;2.90;99.90;;;;;;4923064;29;20071;-84
2021/03/23 02:30:26;;;;;;;32.67;18.25;;;2.90;99.90;;;;;;4939012;29;20130;-84
2021/03/23 02:32:53;;;;;;;40.50;20.17;;;2.90;99.90;;;;;;4920245;29;20469;-85
2021/03/23 02:35:29;;;;;;;42.88;20.30;;;2.90;99.90;;;;;;4923824;29;20158;-84
2021/03/23 02:38:00;;;;;;;44.13;21.23;;;2.80;99.90;;;;;;4939495;29;20052;-85
2021/03/23 02:40:31;;;;;;;41.58;21.85;;;2.80;99.90;;;;;;4907843;29;20130;-84
2021/03/23 02:42:58;;;;;;;45.17;22.55;;;2.80;99.90;;;;;;4922069;29;20060;-83
2021/03/23 02:45:27;;;;;;;44.35;22.85;;;2.80;99.90;;;;;;4905969;29;20064;-83
2021/03/23 02:48:14;;;;;;;49.35;24.77;;;2.80;99.90;;;;;;4938927;29;20048;-84
2021/03/23 02:50:40;;;;;;;49.28;24.55;;;2.80;99.90;;;;;;4938706;29;20138;-84
2021/03/23 02:53:12;;;;;;;51.42;25.17;;;2.80;99.90;;;;;;4904476;29;20051;-83
2021/03/23 02:55:41;;;;;;;47.05;25.33;;;2.80;99.90;;;;;;4903840;29;20212;-83
2021/03/23 02:58:08;;;;;;;48.00;25.02;;;2.80;99.90;;;;;;4903494;29;20500;-84
2021/03/23 03:00:35;;;;;;;49.67;24.10;;;2.80;99.90;;;;;;4935886;29;20079;-85
2021/03/23 03:03:08;;;;;;;47.63;23.25;;;2.80;99.90;;;;;;4903131;29;20390;-84
2021/03/23 03:05:50;;;;;;;50.55;25.05;;;2.80;99.90;;;;;;4931738;29;20048;-83
2021/03/23 03:08:18;;;;;;;50.97;25.02;;;2.80;99.90;;;;;;4918510;29;20111;-84
2021/03/23 03:10:44;;;;;;;57.58;25.52;;;2.80;99.90;;;;;;4905751;29;20138;-84
2021/03/23 03:13:11;;;;;;;47.45;25.20;;;2.70;99.90;;;;;;4913099;29;20076;-85
2021/03/23 03:15:38;;;;;;;52.03;25.23;;;2.80;99.90;;;;;;4909447;29;20351;-84
2021/03/23 03:18:05;;;;;;;49.85;24.42;;;2.80;99.90;;;;;;4919873;29;20138;-84
2021/03/23 03:20:35;;;;;;;47.28;24.15;;;2.70;99.90;;;;;;4906420;29;20078;-83
2021/03/23 03:23:09;;;;;;;43.33;23.35;;;2.80;99.90;;;;;;4920929;29;20051;-85
2021/03/23 03:25:35;;;;;;;47.10;23.88;;;2.70;99.90;;;;;;4937035;29;20118;-84
2021/03/23 03:28:08;;;;;;;50.00;23.20;;;2.70;99.90;;;;;;4936543;29;20051;-85
2021/03/23 03:30:41;;;;;;;49.28;25.02;;;2.70;99.90;;;;;;4932520;29;20359;-83
2021/03/23 03:33:16;;;;;;;52.85;27.00;;;2.70;99.90;;;;;;4921633;29;20147;-83
2021/03/23 03:35:48;;;;;;;59.08;27.45;;;2.70;99.90;;;;;;4902855;29;20112;-84
2021/03/23 03:38:15;;;;;;;60.78;29.85;;;2.70;99.90;;;;;;4918113;29;20134;-84
2021/03/23 03:40:54;;;;;;;59.85;29.17;;;2.60;99.90;;;;;;4936872;29;20134;-84
2021/03/23 03:43:28;;;;;;;52.63;27.50;;;2.70;99.90;;;;;;4937984;29;20178;-82
2021/03/23 03:45:55;;;;;;;58.97;29.40;;;2.70;99.90;;;;;;4922098;29;20485;-84
2021/03/23 03:48:23;;;;;;;59.13;28.95;;;2.70;99.90;;;;;;4942671;29;20107;-84
2021/03/23 03:50:58;;;;;;;57.67;29.58;;;2.70;99.90;;;;;;4931895;29;20107;-84
2021/03/23 03:53:34;;;;;;;56.03;27.33;;;2.70;99.90;;;;;;4937791;29;20047;-84
2021/03/23 03:56:04;;;;;;;60.00;30.08;;;2.70;99.90;;;;;;4917402;29;20110;-85
2021/03/23 03:58:33;;;;;;;64.50;29.88;;;2.70;99.90;;;;;;4946695;29;20473;-84
2021/03/23 04:01:05;;;;;;;60.25;30.40;;;2.70;99.90;;;;;;4930464;29;20052;-84
2021/03/23 04:03:33;;;;;;;56.77;28.83;;;2.70;99.90;;;;;;4940685;29;20066;-84
2021/03/23 04:06:06;;;;;;;57.63;29.15;;;2.70;99.90;;;;;;4902142;29;20070;-85
2021/03/23 04:08:38;;;;;;;;;;;2.70;99.90;;;;;;4921159;29;20484;-83
2021/03/23 04:11:13;;;;;;;56.97;27.63;;;2.70;99.90;;;;;;4918234;29;20288;-85
2021/03/23 04:13:41;;;;;;;63.47;28.55;;;2.70;99.90;;;;;;4920667;29;20056;-84
2021/03/23 04:16:10;;;;;;;59.38;27.75;;;2.70;99.90;;;;;;4905303;29;20450;-83
2021/03/23 04:18:37;;;;;;;63.20;28.98;;;2.70;99.90;;;;;;4905030;29;20052;-84
2021/03/23 04:21:05;;;;;;;59.20;29.15;;;2.70;99.90;;;;;;4911900;29;20441;-84
2021/03/23 04:23:40;;;;;;;59.08;30.27;;;2.70;99.90;;;;;;4919381;29;20463;-84
2021/03/23 04:26:11;;;;;;;55.60;28.40;;;2.70;99.90;;;;;;4920821;29;20075;-84
2021/03/23 04:28:40;;;;;;;59.63;29.75;;;2.70;99.90;;;;;;4919321;29;20056;-83
2021/03/23 04:31:38;;;;;;;54.72;28.33;;;2.70;99.90;;;;;;4905562;29;20070;-83
2021/03/23 04:34:07;;;;;;;62.67;30.45;;;2.70;99.90;;;;;;4892521;29;20070;-84
2021/03/23 04:36:34;;;;;;;62.65;30.50;;;2.70;99.90;;;;;;4916151;29;20475;-85
2021/03/23 04:39:01;;;;;;;63.97;31.48;;;2.70;99.90;;;;;;4915631;29;20085;-85
2021/03/23 04:41:31;;;;;;;63.40;30.67;;;2.70;99.90;;;;;;4900080;29;20378;-83
2021/03/23 04:43:58;;;;;;;61.20;29.95;;;2.70;99.90;;;;;;4900651;29;20048;-84
2021/03/23 04:46:29;;;;;;;57.92;30.75;;;2.70;99.90;;;;;;4885053;29;20111;-85
2021/03/23 04:48:59;;;;;;;55.60;28.27;;;2.70;99.90;;;;;;4923268;29;20111;-84
2021/03/23 04:51:40;;;;;;;59.25;29.30;;;2.60;99.90;;;;;;4900327;29;20162;-84
2021/03/23 04:54:08;;;;;;;65.15;29.90;;;2.60;99.90;;;;;;4900491;29;20123;-84
2021/03/23 04:56:39;;;;;;;56.33;29.20;;;2.60;99.90;;;;;;4917933;29;20049;-84
2021/03/23 04:59:12;;;;;;;63.47;30.05;;;2.60;99.90;;;;;;4900336;29;20063;-84
2021/03/23 05:01:40;;;;;;;58.35;29.48;;;2.60;99.90;;;;;;4918063;29;20083;-84
2021/03/23 05:04:15;;;;;;;63.42;31.50;;;2.60;99.90;;;;;;4920500;29;20058;-84
2021/03/23 05:06:42;;;;;;;62.83;28.95;;;2.60;99.90;;;;;;4905015;29;20409;-84
2021/03/23 05:09:16;;;;;;;61.42;29.67;;;2.60;99.90;;;;;;4921081;29;20142;-83
2021/03/23 05:11:51;;;;;;;60.75;29.48;;;2.60;99.90;;;;;;4923033;29;20048;-84
2021/03/23 05:14:19;;;;;;;61.70;30.20;;;2.60;99.90;;;;;;4908981;29;20055;-83
2021/03/23 05:16:46;;;;;;;66.00;31.27;;;2.60;99.90;;;;;;4920727;29;20055;-81
2021/03/23 05:19:13;;;;;;;62.90;30.75;;;2.60;99.90;;;;;;4938530;29;20051;-82
2021/03/23 05:21:39;;;;;;;57.33;29.83;;;2.60;99.90;;;;;;4943282;29;20087;-83
2021/03/23 05:24:08;;;;;;;58.33;29.58;;;2.60;99.90;;;;;;4939413;29;20076;-83
2021/03/23 05:26:34;;;;;;;73.05;35.35;;;2.60;99.90;;;;;;4909553;29;20067;-84
2021/03/23 05:29:07;;;;;;;63.17;31.30;;;2.60;99.90;;;;;;4906671;29;20361;-84
2021/03/23 05:31:33;;;;;;;60.67;30.73;;;2.60;99.90;;;;;;4932060;29;20119;-83
2021/03/23 05:34:07;;;;;;;63.63;31.45;;;2.60;99.90;;;;;;4904487;29;20134;-82
2021/03/23 05:36:33;;;;;;;62.80;30.23;;;2.60;99.90;;;;;;4929976;29;20099;-82
2021/03/23 05:39:03;;;;;;;54.85;28.92;;;2.60;99.90;;;;;;4918444;29;20059;-82
2021/03/23 05:41:44;;;;;;;57.33;28.73;;;2.70;99.90;;;;;;4936035;29;20457;-83
2021/03/23 05:44:38;;;;;;;64.03;30.98;;;2.70;99.90;;;;;;4919153;29;20553;-84
2021/03/23 05:47:20;;;;;;;56.83;30.58;;;2.70;99.90;;;;;;4935723;29;20099;-82
2021/03/23 05:50:12;;;;;;;57.60;29.83;;;2.80;99.90;;;;;;4908078;29;20082;-80
2021/03/23 05:52:51;;;;;;;;;;;2.80;99.90;;;;;;4954213;29;20044;-81
2021/03/23 05:55:35;;;;;;;60.15;28.08;;;2.80;99.90;;;;;;4949264;29;20232;-83
2021/03/23 05:58:27;;;;;;;57.88;29.85;;;2.90;99.90;;;;;;4948136;29;20131;-82
2021/03/23 06:01:17;;;;;;;42.37;22.37;;;2.80;99.90;;;;;;4924136;29;20055;-82
2021/03/23 06:03:49;;;;;;;59.33;29.48;;;2.90;99.90;;;;;;4911416;29;20423;-82
2021/03/23 06:06:48;;;;;;;61.95;30.83;;;2.90;99.90;;;;;;4921650;29;20051;-82
2021/03/23 06:09:21;;;;;;;62.08;29.15;;;2.90;99.90;;;;;;4922858;29;20039;-82
2021/03/23 06:12:12;;;;;;;58.25;30.27;;;3.00;99.90;;;;;;4935922;29;20071;-85
2021/03/23 06:15:28;;;;;;;58.08;31.70;;;3.00;99.90;;;;;;4934495;29;20150;-85
2021/03/23 06:18:14;;;;;;;55.58;27.95;;;3.10;99.90;;;;;;4892717;29;20080;-81
2021/03/23 06:20:55;;;;;;;54.30;28.73;;;3.10;99.90;;;;;;4930450;29;20458;-81
2021/03/23 06:24:16;;;;;;;56.83;28.90;;;3.20;99.90;;;;;;4936621;29;20059;-81
2021/03/23 06:26:53;;;;;;;60.38;28.25;;;3.30;99.90;;;;;;4938077;29;20410;-81
2021/03/23 06:29:34;;;;;;;60.28;28.00;;;3.30;99.90;;;;;;4922214;29;20138;-81
2021/03/23 06:32:33;;;;;;;51.30;26.85;;;3.40;99.90;;;;;;4923968;29;20178;-80
2021/03/23 06:35:17;;;;;;;55.45;29.08;;;3.40;99.90;;;;;;4921962;29;20047;-81
2021/03/23 06:37:45;;;;;;;55.65;29.58;;;3.50;99.90;;;;;;4921948;29;20090;-81
2021/03/23 06:40:19;;;;;;;55.65;28.30;;;3.60;99.90;;;;;;4918342;29;20084;-81
2021/03/23 06:42:49;;;;;;;49.05;27.00;;;3.60;99.90;;;;;;4919654;29;20055;-81
2021/03/23 06:45:36;;;;;;;57.20;29.25;;;3.60;99.90;;;;;;4902013;29;20151;-81
2021/03/23 06:48:27;;;;;;;50.05;27.00;;;3.60;99.90;;;;;;4910469;29;20094;-81
2021/03/23 06:51:19;;;;;;;60.13;27.92;;;3.70;99.90;;;;;;4927512;29;20123;-82
2021/03/23 06:53:49;;;;;;;54.28;27.92;;;3.80;99.90;;;;;;4908411;29;20056;-81
2021/03/23 06:56:26;;;;;;;50.50;28.42;;;3.80;99.90;;;;;;4929667;29;20059;-81
2021/03/23 06:59:17;;;;;;;55.30;28.50;;;3.80;99.90;;;;;;4946678;29;20059;-82
2021/03/23 07:01:47;;;;;;;52.05;27.25;;;3.90;99.90;;;;;;4940209;29;20059;-81
2021/03/23 07:04:42;;;;;;;51.55;28.40;;;4.00;99.90;;;;;;4922172;29;20052;-82
2021/03/23 07:07:14;;;;;;;53.80;27.63;;;4.10;99.90;;;;;;4938716;29;20059;-82
2021/03/23 07:09:53;;;;;;;54.45;28.23;;;4.10;99.90;;;;;;4938550;29;20054;-82
2021/03/23 07:12:39;;;;;;;50.97;26.92;;;4.20;99.90;;;;;;4921564;29;20494;-81
2021/03/23 07:15:17;;;;;;;54.88;28.20;;;4.30;99.90;;;;;;4937784;29;20054;-81
2021/03/23 07:17:49;;;;;;;51.88;27.25;;;4.30;99.90;;;;;;4921372;29;20054;-82
2021/03/23 07:20:23;;;;;;;49.55;27.52;;;4.30;99.90;;;;;;4937828;29;20433;-82
2021/03/23 07:22:52;;;;;;;51.78;27.48;;;4.50;99.90;;;;;;4937991;29;20056;-81
2021/03/23 07:25:41;;;;;;;50.97;28.70;;;4.60;99.90;;;;;;4937908;29;20114;-81
2021/03/23 07:28:20;;;;;;;51.35;27.33;;;4.70;99.90;;;;;;4924061;29;20048;-81
2021/03/23 07:31:17;;;;;;;55.40;28.38;;;4.80;99.90;;;;;;4918491;29;20052;-81
2021/03/23 07:34:24;;;;;;;51.83;27.27;;;4.90;99.90;;;;;;4937573;29;20051;-81
2021/03/23 07:37:15;;;;;;;54.05;27.02;;;4.90;99.90;;;;;;4920106;29;20130;-82
2021/03/23 07:39:54;;;;;;;49.35;26.30;;;5.00;99.90;;;;;;4920813;29;20134;-80
2021/03/23 07:42:26;;;;;;;49.22;27.77;;;5.10;99.90;;;;;;4926643;29;20481;-81
2021/03/23 07:45:15;;;;;;;48.20;25.40;;;5.20;99.90;;;;;;4928281;29;20047;-81
2021/03/23 07:48:19;;;;;;;49.97;26.85;;;5.30;99.90;;;;;;4921852;29;20448;-82
2021/03/23 07:50:54;;;;;;;54.35;26.45;;;5.40;99.90;;;;;;4947359;29;20090;-81
2021/03/23 07:53:25;;;;;;;48.58;27.52;;;5.60;99.90;;;;;;4952051;29;20401;-82
2021/03/23 07:55:52;;;;;;;46.97;27.65;;;5.70;99.90;;;;;;4931785;29;20066;-81
2021/03/23 07:58:57;;;;;;;46.83;27.65;;;5.80;99.90;;;;;;4945850;29;20171;-82
2021/03/23 08:01:50;;;;;;;50.22;27.27;;;5.80;99.90;;;;;;4879435;29;20057;-82
2021/03/23 08:04:43;;;;;;;47.33;27.27;;;5.80;99.90;;;;;;4879374;29;20144;-81
2021/03/23 08:07:23;;;;;;;51.97;28.80;;;5.90;99.90;;;;;;4863735;29;20065;-81
2021/03/23 08:10:21;;;;;;;50.80;26.85;;;5.90;99.90;;;;;;4862735;29;20479;-81
2021/03/23 08:13:13;;;;;;;46.78;25.98;;;5.80;99.90;;;;;;4927218;29;20051;-82
2021/03/23 08:16:17;;;;;;;52.42;26.85;;;5.90;99.90;;;;;;4935574;29;20584;-82
2021/03/23 08:19:21;;;;;;;45.65;26.00;;;6.00;99.90;;;;;;4925383;29;20064;-83
2021/03/23 08:22:13;;;;;;;46.25;26.40;;;6.10;99.90;;;;;;4935879;29;20137;-82
2021/03/23 08:25:14;;;;;;;47.17;24.35;;;6.20;99.90;;;;;;4937172;29;20094;-81
2021/03/23 08:27:40;;;;;;;44.88;24.27;;;6.40;99.90;;;;;;4914378;29;20064;-82
2021/03/23 08:30:45;;;;;;;46.65;25.48;;;6.60;99.90;;;;;;4900999;29;20056;-82
2021/03/23 08:33:42;;;;;;;38.20;23.70;;;6.70;99.90;;;;;;4878269;29;20064;-82
2021/03/23 08:36:41;;;;;;;38.90;22.58;;;6.80;99.90;;;;;;4896773;29;20446;-82
2021/03/23 08:39:49;;;;;;;45.33;24.50;;;6.90;99.90;;;;;;4935745;29;20056;-82
2021/03/23 08:42:22;;;;;;;47.80;25.10;;;6.90;99.90;;;;;;4919981;29;20058;-82
2021/03/23 08:45:29;;;;;;;42.88;24.35;;;7.00;99.90;;;;;;4919465;29;20059;-82
2021/03/23 08:48:16;;;;;;;43.15;24.23;;;7.00;99.90;;;;;;4922920;29;20093;-82
2021/03/23 08:50:54;;;;;;;44.75;24.88;;;7.30;99.90;;;;;;4920269;29;20075;-82
2021/03/23 08:53:42;;;;;;;41.88;24.17;;;7.40;99.90;;;;;;4920423;29;20537;-83
2021/03/23 08:56:16;;;;;;;42.28;24.65;;;7.50;99.90;;;;;;4918027;29;20091;-81
2021/03/23 08:58:52;;;;;;;45.90;25.52;;;7.60;99.90;;;;;;4928856;29;20374;-81
2021/03/23 09:01:40;;;;;;;44.45;24.63;;;7.60;99.90;;;;;;4936601;29;20059;-81
2021/03/23 09:04:16;;;;;;;41.22;22.33;;;7.50;99.90;;;;;;4926861;29;20079;-80
2021/03/23 09:07:13;;;;;;;39.83;23.27;;;7.50;99.90;;;;;;4941637;29;20183;-81
2021/03/23 09:09:47;;;;;;;38.80;22.85;;;7.70;99.90;;;;;;4921923;29;20062;-81
2021/03/23 09:12:44;;;;;;;37.15;22.33;;;8.10;99.90;;;;;;4927305;29;20060;-81
2021/03/23 09:15:25;;;;;;;37.85;22.25;;;8.30;99.90;;;;;;4919653;29;20437;-81
2021/03/23 09:18:13;;;;;;;38.87;23.50;;;8.40;99.90;;;;;;4936247;29;20070;-80
2021/03/23 09:20:40;;;;;;;41.38;23.33;;;8.10;99.90;;;;;;4917355;29;20063;-81
2021/03/23 09:23:16;;;;;;;38.53;23.95;;;8.10;99.90;;;;;;4919454;29;20128;-81
2021/03/23 09:25:54;;;;;;;45.15;23.88;;;7.90;99.90;;;;;;4924565;29;20062;-80
2021/03/23 09:28:51;;;;;;;40.88;23.00;;;7.50;99.90;;;;;;4924857;29;20126;-81
2021/03/23 09:31:25;;;;;;;39.28;22.05;;;7.40;99.90;;;;;;4941515;29;20056;-81
2021/03/23 09:34:17;;;;;;;36.95;22.42;;;7.40;99.90;;;;;;4941857;29;20392;-82
2021/03/23 09:36:50;;;;;;;37.80;20.90;;;7.50;99.90;;;;;;4912516;29;20385;-82
2021/03/23 09:39:33;;;;;;;37.22;21.08;;;7.40;99.90;;;;;;4926466;29;20051;-83
2021/03/23 09:42:34;;;;;;;35.75;21.45;;;7.30;99.90;;;;;;4910387;29;20063;-82
2021/03/23 09:45:12;;;;;;;39.05;21.58;;;7.10;99.90;;;;;;4925473;29;20051;-81
2021/03/23 09:47:55;;;;;;;35.75;19.52;;;7.00;99.90;;;;;;4915298;29;20052;-82
2021/03/23 09:50:40;;;;;;;40.25;21.55;;;7.00;99.90;;;;;;4938338;29;20047;-79
2021/03/23 09:53:24;;;;;;;34.55;19.40;;;6.80;99.90;;;;;;4937331;29;20299;-82
2021/03/23 09:55:52;;;;;;;38.80;22.45;;;6.70;99.90;;;;;;4932614;29;20160;-82
2021/03/23 09:58:25;;;;;;;34.45;20.15;;;6.60;99.90;;;;;;4939510;29;20071;-82
2021/03/23 10:00:52;;;;;;;37.90;21.52;;;6.70;99.90;;;;;;4923772;29;20056;-82
2021/03/23 10:03:35;;;;;;;37.50;21.75;;;6.70;99.90;;;;;;4922924;29;20060;-82
2021/03/23 10:06:24;;;;;;;;;;;6.80;99.90;;;;;;4923461;29;20067;-83
2021/03/23 10:09:37;;;;;;;33.50;19.80;;;6.80;99.90;;;;;;4922260;29;20033;-82
2021/03/23 10:12:28;;;;;;;36.28;20.08;;;6.70;99.90;;;;;;4936554;29;20047;-82
2021/03/23 10:15:21;;;;;;;45.13;25.45;;;6.70;99.90;;;;;;4939441;29;20074;-81
2021/03/23 10:17:49;;;;;;;33.70;19.17;;;6.60;99.90;;;;;;4922534;29;20051;-82
2021/03/23 10:20:21;;;;;;;34.97;18.92;;;6.60;99.90;;;;;;4908079;29;20381;-81
2021/03/23 10:22:53;;;;;;;33.42;19.13;;;6.60;99.90;;;;;;4921794;29;20477;-82
2021/03/23 10:25:21;;;;;;;29.42;17.40;;;6.60;99.90;;;;;;4921998;29;20055;-82
2021/03/23 10:27:48;;;;;;;29.70;17.02;;;6.50;99.90;;;;;;4903160;29;20060;-81
2021/03/23 10:30:29;;;;;;;31.88;17.20;;;6.50;99.90;;;;;;4916935;29;20382;-81
2021/03/23 10:33:19;;;;;;;28.00;15.63;;;6.50;99.90;;;;;;4934480;29;20047;-82
2021/03/23 10:35:48;;;;;;;25.67;16.50;;;6.60;99.90;;;;;;4921793;29;20066;-82
2021/03/23 10:38:21;;;;;;;29.27;17.15;;;6.70;99.90;;;;;;4920036;29;20083;-81
2021/03/23 10:40:53;;;;;;;26.00;15.88;;;6.70;99.90;;;;;;4918975;29;20384;-81
2021/03/23 10:43:38;;;;;;;26.37;15.23;;;6.80;99.90;;;;;;4921833;29;20059;-81
2021/03/23 10:46:46;;;;;;;26.38;15.32;;;6.70;99.90;;;;;;4921569;29;20298;-81
2021/03/23 10:49:25;;;;;;;26.45;15.57;;;6.70;99.90;;;;;;4846306;29;20182;-81
2021/03/23 10:52:14;;;;;;;25.05;15.68;;;6.70;99.90;;;;;;4916296;29;20118;-81
2021/03/23 10:54:45;;;;;;;27.27;16.33;;;6.50;99.90;;;;;;4939195;29;20055;-83
2021/03/23 10:57:33;;;;;;;31.58;15.88;;;6.40;99.90;;;;;;4902733;29;20067;-83
2021/03/23 11:00:29;;;;;;;31.27;15.82;;;6.40;99.90;;;;;;4918443;29;20060;-82
2021/03/23 11:03:32;;;;;;;25.40;14.63;;;6.40;99.90;;;;;;4917244;29;20044;-81
2021/03/23 11:06:33;;;;;;;25.33;13.60;;;6.50;99.90;;;;;;4921192;29;20118;-82
2021/03/23 11:09:07;;;;;;;26.88;14.48;;;6.70;99.90;;;;;;4907793;29;20066;-81
2021/03/23 11:12:17;;;;;;;30.30;14.18;;;6.60;99.90;;;;;;4918700;29;20051;-81
2021/03/23 11:14:48;;;;;;;19.70;12.35;;;6.70;99.90;;;;;;4916430;29;20054;-81
2021/03/23 11:17:18;;;;;;;21.80;13.48;;;7.00;99.90;;;;;;4921545;29;20465;-82
2021/03/23 11:19:49;;;;;;;22.75;12.60;;;7.30;99.90;;;;;;4938190;29;20051;-82
2021/03/23 11:22:21;;;;;;;18.83;11.82;;;7.60;99.90;;;;;;4922109;29;20114;-81
2021/03/23 11:24:52;;;;;;;19.58;11.52;;;7.80;99.90;;;;;;4921329;29;20362;-81
2021/03/23 11:27:18;;;;;;;20.83;10.30;;;8.00;99.90;;;;;;4921017;29;20047;-82
2021/03/23 11:29:45;;;;;;;16.05;8.75;;;8.10;97.90;;;;;;4920546;29;20111;-83
2021/03/23 11:32:12;;;;;;;15.60;8.93;;;8.20;95.80;;;;;;4937704;29;20110;-80
2021/03/23 11:34:39;;;;;;;13.55;8.57;;;8.30;93.00;;;;;;4920744;29;20044;-81
2021/03/23 11:37:12;;;;;;;19.90;9.75;;;8.30;92.60;;;;;;4937753;29;20122;-83
2021/03/23 11:39:38;;;;;;;21.08;11.10;;;8.10;91.30;;;;;;4920477;29;20056;-83
2021/03/23 11:42:29;;;;;;;17.13;9.38;;;8.10;96.00;;;;;;4908937;29;20071;-81
2021/03/23 11:45:18;;;;;;;15.07;8.65;;;7.90;93.50;;;;;;4920275;29;20051;-82
2021/03/23 11:47:57;;;;;;;19.73;10.77;;;7.90;93.80;;;;;;4937899;29;20114;-81
2021/03/23 11:50:43;;;;;;;15.20;9.68;;;7.90;92.10;;;;;;4914800;29;20055;-81
2021/03/23 11:53:15;;;;;;;16.35;9.88;;;7.60;96.10;;;;;;4927709;29;20104;-81
2021/03/23 11:55:44;;;;;;;15.15;9.75;;;7.50;94.30;;;;;;4932300;29;20052;-82
2021/03/23 11:58:17;;;;;;;17.83;8.93;;;7.50;95.10;;;;;;4927095;29;20127;-82
2021/03/23 12:00:44;;;;;;;20.13;9.82;;;7.60;94.80;;;;;;4910213;29;20059;-82
2021/03/23 12:03:16;;;;;;;16.45;9.65;;;7.70;94.50;;;;;;4917558;29;20052;-81
2021/03/23 12:05:46;;;;;;;17.90;10.15;;;7.50;95.90;;;;;;4901337;29;20091;-81
2021/03/23 12:08:28;;;;;;;15.05;8.70;;;7.40;94.80;;;;;;4901182;29;20052;-81
2021/03/23 12:12:12;;;;;;;16.85;9.57;;;7.30;93.80;;;;;;4916330;29;20044;-82
2021/03/23 12:15:17;;;;;;;14.32;9.25;;;7.20;96.30;;;;;;4864229;29;20363;-82
2021/03/23 12:17:55;;;;;;;14.85;8.15;;;7.30;96.90;;;;;;4902685;29;20062;-82
2021/03/23 12:20:54;;;;;;;17.00;8.93;;;7.40;96.30;;;;;;4935340;29;20060;-81
2021/03/23 12:23:20;;;;;;;17.63;8.48;;;7.40;96.00;;;;;;4920646;29;20052;-82
2021/03/23 12:25:48;;;;;;;16.23;9.90;;;7.40;95.80;;;;;;4919790;29;20150;-81
2021/03/23 12:28:14;;;;;;;16.58;9.38;;;7.40;94.20;;;;;;4904640;29;20051;-81
2021/03/23 12:30:40;;;;;;;16.67;9.93;;;7.30;95.20;;;;;;4919787;29;20151;-82
2021/03/23 12:33:16;;;;;;;15.45;9.45;;;7.30;95.90;;;;;;4916642;29;20141;-82
2021/03/23 12:35:44;;;;;;;20.52;9.35;;;7.30;97.20;;;;;;4901068;29;20151;-82
2021/03/23 12:38:14;;;;;;;14.77;8.95;;;7.30;93.90;;;;;;4924159;29;20074;-82
2021/03/23 12:40:44;;;;;;;18.27;8.88;;;7.30;93.40;;;;;;4920825;29;20438;-83
2021/03/23 12:43:26;;;;;;;15.45;8.85;;;7.30;96.30;;;;;;4937702;29;20066;-82
2021/03/23 12:46:11;;;;;;;23.88;8.82;;;7.20;96.00;;;;;;4905861;29;20052;-82
2021/03/23 12:48:41;;;;;;;13.63;8.23;;;7.30;97.20;;;;;;4920917;29;20063;-82
2021/03/23 12:51:39;;;;;;;16.38;8.77;;;7.40;95.70;;;;;;4917515;29;20139;-81
2021/03/23 12:54:27;;;;;;;17.10;8.88;;;7.50;92.50;;;;;;4916678;29;20055;-82
2021/03/23 12:56:54;;;;;;;14.75;8.93;;;7.60;92.50;;;;;;4917502;29;20067;-82
2021/03/23 12:59:25;;;;;;;13.65;8.02;;;7.70;96.70;;;;;;4927883;29;20052;-82
2021/03/23 13:01:52;;;;;;;12.07;7.10;;;7.70;92.20;;;;;;4924296;29;20066;-83
2021/03/23 13:04:22;;;;;;;14.80;9.15;;;7.80;91.20;;;;;;4942448;29;20066;-83
2021/03/23 13:06:56;;;;;;;13.45;9.07;;;7.80;93.30;;;;;;4919536;29;20454;-82
2021/03/23 13:09:30;;;;;;;10.80;7.15;;;7.90;95.90;;;;;;4908340;29;20066;-82
2021/03/23 13:12:16;;;;;;;14.55;8.77;;;8.00;90.90;;;;;;4924558;29;20059;-82
2021/03/23 13:14:45;;;;;;;13.77;9.00;;;8.10;90.00;;;;;;4941489;29;20104;-81
2021/03/23 13:17:13;;;;;;;18.05;9.18;;;7.90;89.70;;;;;;4924809;29;20157;-81
2021/03/23 13:19:40;;;;;;;18.73;8.80;;;7.80;92.40;;;;;;4925448;29;20066;-81
2021/03/23 13:22:16;;;;;;;17.83;8.50;;;7.80;91.90;;;;;;4925396;29;20157;-81
2021/03/23 13:24:49;;;;;;;13.68;8.93;;;7.90;93.70;;;;;;4925798;29;20054;-81
2021/03/23 13:27:25;;;;;;;16.70;8.98;;;7.80;96.10;;;;;;4924925;29;20055;-81
2021/03/23 13:30:14;;;;;;;15.45;8.98;;;7.80;96.90;;;;;;4923447;29;20066;-82